Time;durP1;ratioP1;P1;durP2;ratioP2;P2;SDS_P1;SDS_P2;PMS_P1;PMS_P2;Temp;Humidity;BMP_temperature;BMP_pressure;BME280_temperature;BME280_humidity;BME280_pressure;Samples;Min_cycle;Max_cycle;Signal;HPM_P1;HPM_P2
2022/09/26 00:01:05;;;;;;;8.20;6.57;;;;;;;13.25;100.00;100033.00;5072502;28;20027;-70
2022/09/26 00:03:31;;;;;;;9.23;6.90;;;;;;;13.07;100.00;100031.97;5072401;28;20401;-70
2022/09/26 00:06:05;;;;;;;10.70;7.13;;;;;;;13.35;100.00;100060.66;5090964;28;20028;-69
2022/09/26 00:08:38;;;;;;;8.10;6.47;;;;;;;13.47;100.00;100079.81;5090816;28;20189;-69
2022/09/26 00:11:06;;;;;;;10.52;6.38;;;;;;;13.15;100.00;100013.81;5090208;28;20024;-70
2022/09/26 00:13:34;;;;;;;7.97;6.72;;;;;;;12.86;100.00;100013.13;5090795;28;20028;-69
2022/09/26 00:16:00;;;;;;;7.82;6.22;;;;;;;13.37;100.00;100086.16;5090815;28;20034;-70
2022/09/26 00:18:26;;;;;;;8.90;6.22;;;;;;;13.45;100.00;100068.81;5090573;28;20036;-69
2022/09/26 00:20:52;;;;;;;8.38;6.45;;;;;;;12.81;100.00;100034.59;5072766;28;20024;-69
2022/09/26 00:23:17;;;;;;;6.40;5.80;;;;;;;13.11;100.00;100025.03;5090848;28;20481;-72
2022/09/26 00:25:51;;;;;;;11.23;6.93;;;;;;;13.22;100.00;100069.69;5094342;28;20413;-70
2022/09/26 00:28:18;;;;;;;9.73;6.70;;;;;;;13.04;100.00;99999.72;5094568;28;20432;-73
2022/09/26 00:30:44;;;;;;;10.02;6.60;;;;;;;12.60;100.00;99972.44;5094485;28;20032;-70
2022/09/26 00:33:11;;;;;;;9.27;6.18;;;;;;;13.38;100.00;100058.00;5095026;28;20101;-71
2022/09/26 00:35:36;;;;;;;9.18;6.70;;;;;;;13.10;100.00;100029.28;5094450;28;20470;-70
2022/09/26 00:38:04;;;;;;;8.73;6.53;;;;;;;12.88;100.00;100033.47;5076348;28;20024;-71
2022/09/26 00:40:30;;;;;;;10.05;6.75;;;;;;;12.82;100.00;100000.53;5094332;28;20024;-72
2022/09/26 00:42:56;;;;;;;8.48;6.65;;;;;;;13.72;100.00;100070.31;5094632;28;20119;-70
2022/09/26 00:45:26;;;;;;;7.22;6.38;;;;;;;13.37;100.00;100030.78;5094240;28;20020;-70
2022/09/26 00:48:02;;;;;;;8.88;6.85;;;;;;;13.21;100.00;100083.31;5093976;28;20500;-70
2022/09/26 00:50:33;;;;;;;8.55;6.35;;;;;;;12.82;100.00;100044.75;5094504;28;20036;-73
2022/09/26 00:53:03;;;;;;;9.30;7.20;;;;;;;12.78;100.00;100027.03;5094268;28;20020;-72
2022/09/26 00:55:35;;;;;;;8.38;7.07;;;;;;;13.15;100.00;100072.53;5094079;28;20035;-70
2022/09/26 00:58:17;;;;;;;8.57;6.70;;;;;;;13.00;100.00;100026.22;5094509;28;20077;-70
2022/09/26 01:00:45;;;;;;;7.45;6.75;;;;;;;13.07;100.00;100026.88;5093628;28;20036;-70
2022/09/26 01:03:12;;;;;;;10.02;7.07;;;;;;;13.56;100.00;100076.91;5093961;28;20043;-69
2022/09/26 01:05:37;;;;;;;7.68;6.88;;;;;;;13.33;100.00;100047.13;5094726;28;20088;-70
2022/09/26 01:08:04;;;;;;;12.32;7.25;;;;;;;13.11;100.00;100020.75;5094035;28;20519;-70
2022/09/26 01:10:31;;;;;;;10.15;6.90;;;;;;;12.68;100.00;100041.84;5093788;28;20510;-72
2022/09/26 01:13:00;;;;;;;9.60;6.82;;;;;;;13.05;100.00;100088.16;5075579;28;20039;-75
2022/09/26 01:15:25;;;;;;;8.00;7.13;;;;;;;13.06;100.00;99999.66;5093638;28;20043;-74
2022/09/26 01:17:51;;;;;;;10.13;7.82;;;;;;;12.51;100.00;100010.19;5093516;28;20024;-71
2022/09/26 01:20:25;;;;;;;9.30;7.63;;;;;;;12.86;100.00;100032.72;5075857;28;20039;-71
2022/09/26 01:23:25;;;;;;;12.68;7.82;;;;;;;13.30;100.00;100072.78;5093982;28;20039;-75
2022/09/26 01:26:09;;;;;;;11.10;7.25;;;;;;;13.41;100.00;100085.16;5075088;28;20042;-76
2022/09/26 01:29:00;;;;;;;9.00;7.18;;;;;;;13.07;100.00;100074.53;5075388;28;20031;-72
2022/09/26 01:32:47;;;;;;;9.75;7.03;;;;;;;13.09;100.00;100068.47;5111824;28;20029;-73
2022/09/26 01:34:54;;;;;;;8.57;7.50;;;;;;;13.18;100.00;100067.28;5112689;28;20117;-72
2022/09/26 01:37:37;;;;;;;8.68;7.32;;;;;;;13.06;100.00;100071.13;5112982;28;20031;-72
2022/09/26 01:40:14;;;;;;;8.95;7.22;;;;;;;13.07;100.00;100074.53;5113612;28;20023;-73
2022/09/26 01:43:10;;;;;;;8.85;6.75;;;;;;;13.12;100.00;100072.63;5113150;28;20024;-72
2022/09/26 01:46:02;;;;;;;11.68;7.13;;;;;;;13.30;100.00;100070.22;5113709;28;20020;-72
2022/09/26 01:48:32;;;;;;;9.05;7.82;;;;;;;12.79;100.00;100021.06;5113466;28;20038;-73
2022/09/26 01:51:18;;;;;;;12.30;7.50;;;;;;;13.12;100.00;100064.97;5113462;28;20026;-73
2022/09/26 01:54:10;;;;;;;12.50;7.65;;;;;;;12.61;100.00;100080.38;5113611;28;20031;-72
2022/09/26 01:56:38;;;;;;;7.83;7.03;;;;;;;12.50;100.00;100031.50;5095197;28;20031;-72
2022/09/26 01:59:09;;;;;;;9.80;7.47;;;;;;;12.65;100.00;100015.63;5113781;28;20507;-73
2022/09/26 02:01:40;;;;;;;11.07;7.82;;;;;;;12.17;100.00;100016.47;5113712;28;20031;-72
2022/09/26 02:04:20;;;;;;;8.93;7.35;;;;;;;12.14;100.00;100029.28;5095548;28;20032;-73
2022/09/26 02:07:00;;;;;;;9.50;7.22;;;;;;;12.32;100.00;100022.72;5113250;28;20059;-72
2022/09/26 02:09:33;;;;;;;9.05;7.15;;;;;;;12.50;100.00;100027.19;5113372;28;20470;-73
2022/09/26 02:12:04;;;;;;;9.20;7.30;;;;;;;12.07;100.00;100004.91;5113216;28;20046;-73
2022/09/26 02:14:39;;;;;;;11.98;7.95;;;;;;;11.95;100.00;99986.63;5094821;28;20035;-75
2022/09/26 02:17:09;;;;;;;10.25;8.02;;;;;;;11.96;100.00;100008.72;5113105;28;20031;-73
2022/09/26 02:19:45;;;;;;;10.00;8.60;;;;;;;11.92;100.00;99996.94;5113463;28;20057;-73
2022/09/26 02:22:10;;;;;;;9.55;8.30;;;;;;;11.70;100.00;99984.09;5094574;28;20487;-73
2022/09/26 02:24:36;;;;;;;9.63;8.15;;;;;;;11.77;100.00;100012.72;5112896;28;20111;-72
2022/09/26 02:27:02;;;;;;;9.32;7.97;;;;;;;11.83;100.00;100002.31;5094740;28;20418;-73
2022/09/26 02:29:28;;;;;;;9.93;8.00;;;;;;;12.05;100.00;100031.31;5112865;28;20028;-73
2022/09/26 02:32:01;;;;;;;11.30;8.00;;;;;;;12.06;100.00;100045.75;5112362;28;20042;-72
2022/09/26 02:34:27;;;;;;;10.38;8.10;;;;;;;11.51;100.00;99952.41;5106827;28;20430;-72
2022/09/26 02:36:55;;;;;;;10.85;7.63;;;;;;;11.72;100.00;99958.56;5091801;28;20031;-72
2022/09/26 02:39:21;;;;;;;13.88;8.13;;;;;;;12.11;100.00;100037.06;5074032;28;20024;-73
2022/09/26 02:41:51;;;;;;;12.35;8.55;;;;;;;11.43;100.00;100015.47;5092449;28;20845;-73
2022/09/26 02:44:28;;;;;;;10.40;8.10;;;;;;;12.06;100.00;100056.75;5092258;28;20028;-73
2022/09/26 02:47:28;;;;;;;9.85;8.73;;;;;;;12.29;100.00;100055.16;5091432;28;20024;-73
2022/09/26 02:50:24;;;;;;;9.15;8.07;;;;;;;12.46;100.00;100053.69;5092524;28;20081;-74
2022/09/26 02:52:49;;;;;;;12.82;8.60;;;;;;;12.20;100.00;100057.13;5092368;28;20064;-71
2022/09/26 02:55:31;;;;;;;10.85;8.88;;;;;;;12.03;100.00;100064.50;5092216;28;20122;-72
2022/09/26 02:58:25;;;;;;;10.73;8.95;;;;;;;11.71;100.00;100001.03;5092480;28;20028;-71
2022/09/26 03:01:09;;;;;;;10.68;9.20;;;;;;;11.50;100.00;99976.22;5073695;28;20482;-73
2022/09/26 03:03:42;;;;;;;11.48;8.55;;;;;;;11.78;100.00;99986.38;5091821;28;20030;-72
2022/09/26 03:06:13;;;;;;;10.15;8.90;;;;;;;11.45;100.00;100012.88;5092065;28;20040;-73
2022/09/26 03:08:42;;;;;;;12.85;7.93;;;;;;;12.18;100.00;100046.16;5091960;28;20032;-72
2022/09/26 03:11:11;;;;;;;11.35;8.75;;;;;;;11.48;100.00;100005.13;5074632;28;20038;-73
2022/09/26 03:13:39;;;;;;;10.98;8.60;;;;;;;11.74;100.00;100048.47;5112045;28;20036;-69
2022/09/26 03:16:06;;;;;;;10.00;8.25;;;;;;;11.64;100.00;99942.66;5111645;28;20035;-70
2022/09/26 03:18:39;;;;;;;9.25;8.25;;;;;;;11.78;100.00;100017.78;5112452;28;20035;-71
2022/09/26 03:21:04;;;;;;;9.45;8.50;;;;;;;12.12;100.00;100038.69;5095436;28;20089;-70
2022/09/26 03:23:30;;;;;;;8.98;8.07;;;;;;;12.29;100.00;100053.44;5091230;28;20035;-72
2022/09/26 03:26:01;;;;;;;11.05;8.55;;;;;;;12.32;100.00;100055.88;5091588;28;20028;-71
2022/09/26 03:28:27;;;;;;;;;;;;;;;11.73;100.00;100046.81;5073458;28;20490;-70
2022/09/26 03:30:53;;;;;;;12.75;9.07;;;;;;;12.06;100.00;100040.66;5096867;28;19979;-74
2022/09/26 03:33:18;;;;;;;11.63;8.82;;;;;;;11.85;100.00;99987.81;5091787;28;20040;-75
2022/09/26 03:35:44;;;;;;;10.85;8.63;;;;;;;11.74;100.00;100041.69;5078054;28;20104;-72
2022/09/26 03:38:09;;;;;;;10.25;7.32;;;;;;;13.97;100.00;100024.97;5091030;28;20043;-69
2022/09/26 03:40:35;;;;;;;10.38;8.70;;;;;;;12.37;100.00;100025.13;5090512;28;20028;-74
2022/09/26 03:43:00;;;;;;;11.15;9.48;;;;;;;12.21;100.00;100029.91;5091254;28;20525;-75
2022/09/26 03:45:27;;;;;;;11.68;9.63;;;;;;;11.80;100.00;100023.66;5091633;28;20508;-72
2022/09/26 03:47:56;;;;;;;14.02;9.10;;;;;;;11.54;100.00;99954.03;5090765;28;20063;-72
2022/09/26 03:50:23;;;;;;;12.68;9.02;;;;;;;11.65;100.00;99962.13;5089615;28;20024;-73
2022/09/26 03:52:48;;;;;;;12.38;8.98;;;;;;;11.77;100.00;100013.56;5078205;28;20115;-71
2022/09/26 03:55:14;;;;;;;15.15;8.07;;;;;;;12.53;100.00;99926.81;5090883;28;20107;-72
2022/09/26 03:57:39;;;;;;;13.20;8.68;;;;;;;12.39;100.00;100021.66;5090608;28;20097;-73
2022/09/26 04:00:09;;;;;;;13.13;7.88;;;;;;;14.00;100.00;99947.34;5072417;28;20494;-75
2022/09/26 04:02:34;;;;;;;11.85;9.43;;;;;;;11.12;100.00;99911.25;5072682;28;20120;-70
2022/09/26 04:05:00;;;;;;;15.75;8.55;;;;;;;11.38;100.00;99928.25;5090876;28;20118;-73
2022/09/26 04:07:25;;;;;;;15.75;9.63;;;;;;;11.31;100.00;99967.47;5073870;28;20032;-73
2022/09/26 04:09:51;;;;;;;14.27;10.13;;;;;;;11.35;100.00;99971.59;5070904;28;20040;-73
2022/09/26 04:12:19;;;;;;;12.82;10.30;;;;;;;10.98;100.00;99905.75;5070902;28;20036;-74
2022/09/26 04:14:44;;;;;;;12.73;9.93;;;;;;;11.62;100.00;100013.19;5071360;28;20085;-75
2022/09/26 04:17:11;;;;;;;14.02;9.75;;;;;;;11.52;100.00;100027.91;5070856;28;20463;-72
2022/09/26 04:19:37;;;;;;;16.55;10.27;;;;;;;11.83;100.00;100035.44;5071045;28;20024;-73
2022/09/26 04:22:03;;;;;;;16.77;10.70;;;;;;;11.47;100.00;100017.03;5053287;28;20171;-78
2022/09/26 04:24:28;;;;;;;14.27;10.45;;;;;;;11.50;100.00;100011.03;5071900;28;20028;-73
2022/09/26 04:26:54;;;;;;;13.43;9.93;;;;;;;11.72;100.00;100033.25;5083230;28;20054;-72
2022/09/26 04:29:19;;;;;;;10.63;9.52;;;;;;;11.78;100.00;100037.31;5075893;28;20119;-74
2022/09/26 04:31:45;;;;;;;10.73;9.63;;;;;;;11.75;100.00;99961.84;5070597;28;20422;-73
2022/09/26 04:34:11;;;;;;;14.60;9.75;;;;;;;12.26;100.00;100042.53;5072094;28;20043;-75
2022/09/26 04:36:38;;;;;;;16.52;9.70;;;;;;;13.76;100.00;100024.13;5091045;28;20375;-72
2022/09/26 04:39:04;;;;;;;14.68;9.70;;;;;;;13.35;100.00;100027.47;5109879;28;20041;-74
2022/09/26 04:41:30;;;;;;;17.05;9.57;;;;;;;13.41;100.00;100027.22;5110806;28;20036;-74
2022/09/26 04:43:57;;;;;;;17.73;9.85;;;;;;;12.68;100.00;100025.72;5092900;28;20027;-75
2022/09/26 04:46:26;;;;;;;13.98;9.77;;;;;;;11.95;100.00;99992.56;5110969;28;20026;-74
2022/09/26 04:48:54;;;;;;;14.10;10.23;;;;;;;12.02;100.00;100044.97;5092492;28;20047;-74
2022/09/26 04:51:21;;;;;;;12.68;10.43;;;;;;;12.45;100.00;100028.25;5093156;28;20027;-74
2022/09/26 04:53:47;;;;;;;14.60;10.55;;;;;;;12.11;100.00;100031.94;5092027;28;20038;-75
2022/09/26 04:56:15;;;;;;;16.65;11.05;;;;;;;12.62;100.00;100048.88;5110318;28;20019;-75
2022/09/26 04:58:42;;;;;;;21.50;12.75;;;;;;;12.12;100.00;99984.38;5110620;28;20027;-76
2022/09/26 05:01:13;;;;;;;21.85;13.05;;;;;;;11.92;100.00;100041.06;5111107;28;20066;-77
2022/09/26 05:03:39;;;;;;;24.98;13.38;;;;;;;12.42;100.00;100053.88;5111804;28;20031;-76
2022/09/26 05:06:07;;;;;;;25.55;12.98;;;;;;;12.12;100.00;100054.00;5111426;28;20044;-75
2022/09/26 05:08:38;;;;;;;27.45;13.18;;;;;;;12.28;100.00;100056.06;5093146;28;20085;-74
2022/09/26 05:11:04;;;;;;;25.25;13.52;;;;;;;12.18;100.00;100035.13;5096675;28;20092;-76
2022/09/26 05:13:30;;;;;;;26.88;12.75;;;;;;;12.43;100.00;100047.88;5114910;28;20038;-75
2022/09/26 05:16:01;;;;;;;18.55;12.05;;;;;;;11.98;100.00;99982.25;5114975;28;20417;-75
2022/09/26 05:18:28;;;;;;;15.80;13.52;;;;;;;12.55;100.00;100055.09;5097125;28;20028;-76
2022/09/26 05:20:54;;;;;;;21.20;13.13;;;;;;;12.83;100.00;100022.63;5097092;28;20122;-76
2022/09/26 05:26:23;;;;;;;25.13;16.95;;;;;;;12.36;100.00;99967.41;5115141;28;20490;-77
2022/09/26 05:28:55;;;;;;;25.63;16.23;;;;;;;12.85;100.00;100041.25;5115145;28;20035;-75
2022/09/26 05:31:27;;;;;;;25.15;14.15;;;;;;;12.76;100.00;99988.00;5115075;28;20059;-75
2022/09/26 05:33:56;;;;;;;22.13;13.88;;;;;;;13.14;100.00;100056.38;5114845;28;20089;-75
2022/09/26 05:36:23;;;;;;;26.70;14.30;;;;;;;12.93;100.00;99998.44;5114831;28;20101;-75
2022/09/26 05:38:49;;;;;;;25.70;14.85;;;;;;;13.32;100.00;100058.22;5114792;28;20039;-77
2022/09/26 05:41:15;;;;;;;18.33;13.93;;;;;;;13.12;100.00;99989.22;5114762;28;20027;-74
2022/09/26 05:43:40;;;;;;;26.80;15.30;;;;;;;12.81;100.00;100007.38;5096263;28;20023;-73
2022/09/26 05:46:08;;;;;;;24.42;15.00;;;;;;;13.50;100.00;100056.69;5114333;28;20027;-74
2022/09/26 05:48:35;;;;;;;23.02;14.48;;;;;;;13.65;100.00;100051.81;5114281;28;20020;-74
2022/09/26 05:51:02;;;;;;;22.30;14.38;;;;;;;13.75;100.00;100055.69;5114767;28;20116;-75
2022/09/26 05:53:28;;;;;;;26.63;13.32;;;;;;;14.07;100.00;99987.91;5114634;28;20023;-74
2022/09/26 05:55:54;;;;;;;25.05;13.65;;;;;;;13.86;100.00;100004.16;5114297;28;20398;-73
2022/09/26 05:58:19;;;;;;;32.17;15.05;;;;;;;14.64;100.00;100044.28;5114354;28;20032;-76
2022/09/26 06:00:48;;;;;;;28.00;14.05;;;;;;;14.54;100.00;100006.34;5113871;28;20122;-75
2022/09/26 06:03:14;;;;;;;26.10;12.95;;;;;;;14.43;100.00;100023.91;5095822;28;20566;-74
2022/09/26 06:05:41;;;;;;;26.40;13.38;;;;;;;14.97;100.00;100054.78;5095830;28;20473;-74
2022/09/26 06:08:10;;;;;;;17.25;11.77;;;;;;;15.05;100.00;100042.47;5096106;28;20034;-75
2022/09/26 06:10:37;;;;;;;17.92;11.52;;;;;;;15.38;100.00;100060.56;5095926;28;20053;-74
2022/09/26 06:13:04;;;;;;;15.73;10.68;;;;;;;15.87;100.00;100059.94;5113899;28;20028;-74
2022/09/26 06:15:30;;;;;;;17.40;11.07;;;;;;;15.04;100.00;100056.16;5113636;28;20035;-74
2022/09/26 06:18:00;;;;;;;18.77;11.82;;;;;;;15.12;100.00;100060.91;5095013;28;20031;-74
2022/09/26 06:20:25;;;;;;;17.48;12.38;;;;;;;15.73;100.00;100023.06;5113512;28;20023;-75
2022/09/26 06:22:53;;;;;;;18.85;12.10;;;;;;;16.02;100.00;100064.34;5094707;28;20467;-75
2022/09/26 06:25:19;;;;;;;18.17;13.00;;;;;;;15.58;100.00;100011.81;5095397;28;20039;-75
2022/09/26 06:27:44;;;;;;;17.17;12.48;;;;;;;15.72;100.00;99963.28;5113619;28;20031;-75
2022/09/26 06:30:10;;;;;;;17.25;12.70;;;;;;;15.70;100.00;100041.16;5113653;28;20039;-74
2022/09/26 06:32:38;;;;;;;13.93;12.45;;;;;;;15.89;100.00;100035.06;5113597;28;20035;-73
2022/09/26 06:35:04;;;;;;;17.23;12.40;;;;;;;16.81;100.00;100020.09;5095200;28;20096;-73
2022/09/26 06:37:30;;;;;;;16.95;12.45;;;;;;;16.87;100.00;100009.50;5094872;28;20062;-73
2022/09/26 06:39:55;;;;;;;18.77;12.63;;;;;;;16.92;100.00;100029.78;5113082;28;20031;-74
2022/09/26 06:42:20;;;;;;;17.10;11.65;;;;;;;17.46;100.00;100028.53;5095053;28;20472;-74
2022/09/26 06:44:46;;;;;;;17.05;12.52;;;;;;;17.08;100.00;99985.22;5113484;28;20023;-74
2022/09/26 06:47:12;;;;;;;18.23;12.60;;;;;;;17.12;100.00;99989.28;5113085;28;20028;-73
2022/09/26 06:49:37;;;;;;;22.88;12.95;;;;;;;16.08;100.00;99981.13;5095043;28;20035;-74
2022/09/26 06:52:03;;;;;;;16.52;12.65;;;;;;;17.21;100.00;100050.44;5113512;28;20076;-74
2022/09/26 06:54:28;;;;;;;19.63;13.45;;;;;;;17.07;100.00;99988.69;5112895;28;20430;-75
2022/09/26 06:56:54;;;;;;;20.70;13.70;;;;;;;17.73;100.00;100040.72;5113113;28;20034;-75
2022/09/26 06:59:21;;;;;;;21.13;13.68;;;;;;;17.62;100.00;99960.78;5113364;28;20026;-76
2022/09/26 07:01:46;;;;;;;17.30;12.20;;;;;;;17.11;100.00;100036.41;5112606;28;20478;-73
2022/09/26 07:04:14;;;;;;;15.50;12.05;;;;;;;17.57;100.00;100014.19;5094806;28;20034;-74
2022/09/26 07:06:40;;;;;;;18.88;12.23;;;;;;;17.22;100.00;99984.47;5113318;28;20444;-75
2022/09/26 07:09:06;;;;;;;15.27;11.90;;;;;;;18.06;100.00;100025.13;5094468;28;20118;-74
2022/09/26 07:11:31;;;;;;;16.52;12.18;;;;;;;18.06;100.00;99984.75;5112918;28;20123;-74
2022/09/26 07:14:00;;;;;;;16.83;12.32;;;;;;;17.37;100.00;99975.91;5094506;28;20055;-75
2022/09/26 07:16:26;;;;;;;13.05;11.32;;;;;;;18.02;100.00;99990.19;5112620;28;20035;-74
2022/09/26 07:18:52;;;;;;;16.00;11.88;;;;;;;18.34;100.00;100038.03;5094397;28;20588;-75
2022/09/26 07:21:17;;;;;;;13.90;10.68;;;;;;;18.11;100.00;100028.25;5112604;28;20111;-74
2022/09/26 07:23:43;;;;;;;16.10;10.43;;;;;;;18.80;100.00;100015.53;5112429;28;20034;-74
2022/09/26 07:26:08;;;;;;;16.10;11.68;;;;;;;18.64;100.00;99956.38;5112707;28;20034;-74
2022/09/26 07:28:34;;;;;;;14.57;10.23;;;;;;;18.98;100.00;99974.00;5112311;28;20042;-74
2022/09/26 07:31:00;;;;;;;15.50;10.30;;;;;;;19.29;100.00;100044.25;5112876;28;20023;-75
2022/09/26 07:33:25;;;;;;;12.40;10.20;;;;;;;18.30;100.00;99985.09;5112160;28;20027;-74
2022/09/26 07:35:51;;;;;;;13.70;9.70;;;;;;;19.41;100.00;99966.97;5112627;28;20051;-74
2022/09/26 07:38:17;;;;;;;11.02;9.88;;;;;;;19.47;100.00;100022.50;5112693;28;20038;-75
2022/09/26 07:40:42;;;;;;;12.95;9.73;;;;;;;19.30;100.00;99968.56;5112306;28;20054;-74
2022/09/26 07:43:09;;;;;;;10.50;9.40;;;;;;;19.84;100.00;99949.53;5112159;28;20467;-74
2022/09/26 07:51:04;;;;;;;11.38;9.00;;;;;;;19.92;100.00;99996.31;5112287;28;20509;-73
2022/09/26 07:53:30;;;;;;;11.02;8.27;;;;;;;20.52;100.00;99966.34;5111667;28;20041;-74
2022/09/26 07:56:04;;;;;;;10.80;8.73;;;;;;;20.37;100.00;99982.91;5093129;28;20027;-73
2022/09/26 07:58:31;;;;;;;10.63;8.38;;;;;;;20.74;100.00;99950.19;5112274;28;20031;-75
2022/09/26 08:00:56;;;;;;;9.63;8.70;;;;;;;20.19;100.00;99945.44;5093871;28;20038;-74
2022/09/26 08:03:25;;;;;;;13.50;8.00;;;;;;;21.28;100.00;99968.75;5093556;28;20400;-74
2022/09/26 08:05:54;;;;;;;12.52;9.35;;;;;;;20.53;100.00;99990.44;5094436;28;20255;-75
2022/09/26 08:08:19;;;;;;;12.80;8.95;;;;;;;21.33;100.00;99995.13;5093931;28;20099;-76
2022/09/26 08:10:45;;;;;;;10.95;8.25;;;;;;;20.82;100.00;100003.94;5093810;28;20473;-74
2022/09/26 08:13:11;;;;;;;8.77;7.70;;;;;;;20.88;100.00;99936.31;5094021;28;20038;-75
2022/09/26 08:15:36;;;;;;;9.23;7.65;;;;;;;22.03;100.00;99999.38;5112505;28;20034;-74
2022/09/26 08:18:02;;;;;;;10.60;8.02;;;;;;;20.71;100.00;99964.19;5112335;28;20083;-75
2022/09/26 08:20:27;;;;;;;8.88;7.45;;;;;;;21.48;100.00;99991.41;5093944;28;20038;-75
2022/09/26 08:22:56;;;;;;;10.02;7.40;;;;;;;20.89;100.00;99995.66;5112074;28;20034;-76
2022/09/26 08:25:21;;;;;;;8.02;6.43;;;;;;;20.91;100.00;99926.59;5094484;28;20027;-76
2022/09/26 08:27:49;;;;;;;7.93;5.88;;;;;;;20.71;100.00;99979.69;5112066;28;20038;-75
2022/09/26 08:30:15;;;;;;;6.72;5.60;;;;;;;22.06;100.00;99913.72;5112027;28;20031;-75
2022/09/26 08:32:40;;;;;;;9.18;6.50;;;;;;;22.80;100.00;99928.63;5112026;28;20417;-75
2022/09/26 08:35:06;;;;;;;9.77;6.40;;;;;;;21.49;100.00;99962.84;5111374;28;20113;-75
2022/09/26 08:37:32;;;;;;;8.13;7.32;;;;;;;21.65;100.00;99951.38;5110665;28;20028;-75
2022/09/26 08:39:59;;;;;;;7.43;6.72;;;;;;;21.89;100.00;99962.53;5111537;28;20472;-76
2022/09/26 08:42:41;;;;;;;7.45;6.55;;;;;;;22.88;100.00;99972.91;5111595;28;20451;-76
2022/09/26 08:48:33;;;;;;;9.93;6.28;;;;;;;22.18;100.00;99962.00;5115592;28;20042;-74
2022/09/26 08:51:11;;;;;;;9.77;6.80;;;;;;;22.26;100.00;99894.03;5097575;28;20168;-75
2022/09/26 08:53:48;;;;;;;8.75;6.50;;;;;;;22.50;100.00;99901.69;5115529;28;20120;-75
2022/09/26 08:56:20;;;;;;;9.48;6.00;;;;;;;23.32;98.23;99921.88;5097426;28;20028;-75
2022/09/26 08:58:50;;;;;;;9.23;6.28;;;;;;;23.06;94.38;99947.28;5115625;28;20606;-75
2022/09/26 09:01:34;;;;;;;6.88;5.43;;;;;;;22.85;98.52;99895.38;5097130;28;20113;-76
2022/09/26 09:04:20;;;;;;;7.45;5.63;;;;;;;22.83;95.64;99943.13;5115256;28;20026;-75
2022/09/26 09:06:46;;;;;;;6.10;5.50;;;;;;;23.62;100.00;99917.59;5115168;28;20481;-75
2022/09/26 09:09:15;;;;;;;7.32;5.60;;;;;;;23.41;100.00;99877.84;5115165;28;20028;-75
2022/09/26 09:12:13;;;;;;;5.90;5.30;;;;;;;23.40;96.17;99876.19;5115221;28;20031;-75
2022/09/26 09:15:13;;;;;;;6.32;5.68;;;;;;;23.87;95.14;99922.38;5114842;28;20023;-74
2022/09/26 09:17:59;;;;;;;7.68;5.50;;;;;;;23.03;100.00;99904.28;5096790;28;20073;-75
2022/09/26 09:20:52;;;;;;;6.93;5.18;;;;;;;23.13;99.53;99925.94;5114980;28;20091;-78
2022/09/26 09:23:59;;;;;;;5.85;5.00;;;;;;;22.90;100.00;99933.91;5115408;28;20028;-77
2022/09/26 09:26:50;;;;;;;6.43;4.43;;;;;;;22.34;100.00;99863.19;5032300;28;20037;-75
2022/09/26 09:29:43;;;;;;;6.43;5.32;;;;;;;22.99;100.00;99928.00;5032214;28;20034;-74
2022/09/26 09:32:13;;;;;;;7.65;5.43;;;;;;;21.94;100.00;99880.16;5099615;28;20100;-76
2022/09/26 09:34:42;;;;;;;5.97;5.38;;;;;;;22.27;100.00;99913.81;5114921;28;20051;-77
2022/09/26 09:37:27;;;;;;;5.45;4.95;;;;;;;22.60;100.00;99876.72;5114768;28;20426;-75
2022/09/26 09:39:53;;;;;;;5.43;4.93;;;;;;;22.98;99.74;99913.34;5114632;28;20469;-75
2022/09/26 09:42:33;;;;;;;8.57;5.18;;;;;;;23.85;90.65;99898.31;5114568;28;20063;-74
2022/09/26 09:45:14;;;;;;;6.75;5.30;;;;;;;22.97;96.74;99849.47;5090449;28;20028;-75
2022/09/26 09:47:40;;;;;;;5.97;5.18;;;;;;;23.76;90.19;99864.50;5095845;28;20032;-74
2022/09/26 09:50:40;;;;;;;5.40;4.90;;;;;;;24.44;89.57;99876.84;5096188;28;20047;-77
2022/09/26 09:53:21;;;;;;;6.20;5.10;;;;;;;24.71;75.22;99883.06;5096174;28;20078;-74
2022/09/26 09:56:09;;;;;;;8.68;5.15;;;;;;;24.82;73.10;99823.13;5113986;28;20055;-73
2022/09/26 09:59:04;;;;;;;9.00;4.85;;;;;;;23.75;74.61;99891.44;5095649;28;20450;-74
2022/09/26 10:01:35;;;;;;;5.00;4.32;;;;;;;22.88;81.69;99857.97;5113828;28;20038;-73
2022/09/26 10:04:29;;;;;;;5.40;4.30;;;;;;;23.68;81.10;99883.34;5095624;28;20221;-73
2022/09/26 10:06:55;;;;;;;7.00;4.28;;;;;;;24.45;81.00;99875.88;5095631;28;20501;-73
2022/09/26 10:09:25;;;;;;;5.40;4.60;;;;;;;23.94;84.54;99835.22;5113657;28;20035;-73
2022/09/26 10:11:51;;;;;;;6.20;4.88;;;;;;;23.62;83.79;99816.34;5095533;28;20034;-74
2022/09/26 10:14:57;;;;;;;10.30;4.75;;;;;;;24.78;75.24;99859.97;5107844;28;20421;-72
2022/09/26 10:17:23;;;;;;;9.07;5.18;;;;;;;25.25;69.41;99796.66;5083246;28;20054;-73
2022/09/26 10:19:49;;;;;;;10.00;5.00;;;;;;;25.26;71.45;99849.53;5100986;28;20486;-72
2022/09/26 10:22:24;;;;;;;4.70;4.30;;;;;;;25.63;64.28;99860.88;5112528;28;20490;-72
2022/09/26 10:24:58;;;;;;;5.15;4.20;;;;;;;25.45;68.84;99833.91;5112623;28;20023;-73
2022/09/26 10:27:32;;;;;;;5.90;4.40;;;;;;;24.90;69.41;99835.44;5111644;28;20032;-75
2022/09/26 10:30:00;;;;;;;5.13;4.28;;;;;;;26.32;60.92;99803.94;5112909;28;20054;-73
2022/09/26 10:32:27;;;;;;;4.75;4.20;;;;;;;25.51;59.50;99794.28;5112230;28;20027;-74
2022/09/26 10:35:17;;;;;;;6.07;4.55;;;;;;;25.51;68.17;99815.13;5112473;28;20477;-73
2022/09/26 10:37:47;;;;;;;6.68;4.32;;;;;;;26.69;58.80;99812.44;5112484;28;20047;-72
2022/09/26 10:43:32;;;;;;;7.05;4.40;;;;;;;26.53;58.90;99815.72;5113174;28;20026;-72
2022/09/26 10:46:03;;;;;;;6.43;4.50;;;;;;;26.57;57.64;99818.84;5112826;28;20027;-74
2022/09/26 10:48:53;;;;;;;4.93;3.97;;;;;;;26.43;54.21;99741.13;5112477;28;20039;-73
2022/09/26 10:51:28;;;;;;;5.57;3.92;;;;;;;26.32;54.69;99827.41;5094482;28;20126;-73
2022/09/26 10:54:10;;;;;;;4.20;3.80;;;;;;;25.78;54.19;99809.94;5113010;28;20478;-73
2022/09/26 10:56:50;;;;;;;5.75;4.00;;;;;;;27.18;51.13;99806.69;5112449;28;20482;-74
2022/09/26 10:59:18;;;;;;;4.80;3.58;;;;;;;26.47;48.49;99768.53;5094843;28;20476;-74
2022/09/26 11:01:47;;;;;;;6.15;3.58;;;;;;;27.23;48.20;99794.00;5112653;28;20024;-73
2022/09/26 11:07:21;;;;;;;4.32;3.55;;;;;;;27.61;47.00;99752.75;5112149;28;20515;-72
2022/09/26 11:09:47;;;;;;;8.52;3.70;;;;;;;27.50;46.70;99743.38;5093892;28;20032;-72
2022/09/26 11:12:36;;;;;;;7.63;3.40;;;;;;;25.33;47.67;99726.50;5112105;28;20031;-72
2022/09/26 11:15:12;;;;;;;3.72;3.13;;;;;;;26.28;47.86;99735.63;5112388;28;20497;-77
2022/09/26 11:17:44;;;;;;;5.60;3.40;;;;;;;26.62;47.66;99773.06;5093756;28;20191;-72
2022/09/26 11:20:49;;;;;;;6.18;3.53;;;;;;;25.62;48.76;99776.69;5093760;28;20027;-73
2022/09/26 11:23:28;;;;;;;7.40;3.50;;;;;;;26.09;47.79;99776.63;5093435;28;20027;-73
2022/09/26 11:26:17;;;;;;;4.55;3.38;;;;;;;26.13;47.41;99770.97;5093640;28;20019;-72
2022/09/26 11:29:03;;;;;;;4.63;3.05;;;;;;;25.78;49.06;99763.06;5093701;28;20028;-72
2022/09/26 11:31:41;;;;;;;6.53;3.42;;;;;;;25.52;47.17;99768.09;5093670;28;20031;-72
2022/09/26 11:34:12;;;;;;;4.80;3.28;;;;;;;25.57;48.53;99771.06;5111613;28;20038;-73
2022/09/26 11:36:40;;;;;;;6.88;3.45;;;;;;;25.79;50.11;99760.28;5111879;28;20084;-73
2022/09/26 11:39:39;;;;;;;7.53;3.20;;;;;;;26.19;47.90;99752.13;5111526;28;20019;-73
2022/09/26 11:42:42;;;;;;;6.28;3.40;;;;;;;26.02;50.60;99739.06;5111529;28;20613;-75
2022/09/26 11:45:39;;;;;;;6.65;3.30;;;;;;;25.98;47.75;99711.66;5093592;28;20067;-74
2022/09/26 11:48:17;;;;;;;5.00;3.60;;;;;;;26.49;48.79;99738.75;5093500;28;20486;-74
2022/09/26 11:51:11;;;;;;;5.75;3.38;;;;;;;25.43;49.47;99693.41;5111366;28;20045;-73
2022/09/26 11:53:59;;;;;;;4.97;3.38;;;;;;;25.63;51.33;99734.03;5111326;28;20023;-72
2022/09/26 11:56:49;;;;;;;3.88;3.17;;;;;;;26.02;51.83;99732.06;5111496;28;20077;-73